createdAt,value
2022-11-05T00:01:30.259Z,9.50
2022-11-05T00:04:17.145Z,9.61
2022-11-05T00:07:04.769Z,9.74
2022-11-05T00:09:34.793Z,9.77
2022-11-05T00:12:25.203Z,9.74
2022-11-05T00:15:12.322Z,9.59
2022-11-05T00:17:41.425Z,9.70
2022-11-05T00:20:13.198Z,9.70
2022-11-05T00:22:59.894Z,9.62
2022-11-05T00:25:29.993Z,9.59
2022-11-05T00:28:02.337Z,9.75
2022-11-05T00:30:31.864Z,9.90
2022-11-05T00:33:02.885Z,9.92
2022-11-05T00:35:31.486Z,9.95
2022-11-05T00:38:00.244Z,9.94
2022-11-05T00:40:29.347Z,9.94
2022-11-05T00:43:16.055Z,9.85
2022-11-05T00:45:44.686Z,9.80
2022-11-05T00:48:31.765Z,9.82
2022-11-05T00:51:00.588Z,9.85
2022-11-05T00:53:29.356Z,9.93
2022-11-05T00:55:58.240Z,9.89
2022-11-05T00:58:28.906Z,9.83
2022-11-05T01:00:59.681Z,9.82
2022-11-05T01:03:30.654Z,9.75
2022-11-05T01:06:06.374Z,9.80
2022-11-05T01:08:35.117Z,9.86
2022-11-05T01:11:10.489Z,9.94
2022-11-05T01:13:40.193Z,10.00
2022-11-05T01:16:10.410Z,9.99
2022-11-05T01:18:39.509Z,10.00
2022-11-05T01:21:15.391Z,10.03
2022-11-05T01:23:44.092Z,10.09
2022-11-05T01:26:12.677Z,10.11
2022-11-05T01:28:41.388Z,10.21
2022-11-05T01:31:10.469Z,10.28
2022-11-05T01:33:39.255Z,10.33
2022-11-05T01:36:09.108Z,10.34
2022-11-05T01:38:37.998Z,10.35
2022-11-05T01:41:09.864Z,10.40
2022-11-05T01:43:49.501Z,10.39
2022-11-05T01:46:20.021Z,10.41
2022-11-05T01:48:52.253Z,10.40
2022-11-05T01:51:25.366Z,10.35
2022-11-05T01:53:59.490Z,10.32
2022-11-05T01:56:33.856Z,10.31
2022-11-05T01:59:07.013Z,10.34
2022-11-05T02:01:35.907Z,10.30
2022-11-05T02:04:08.863Z,10.29
2022-11-05T02:06:45.608Z,10.33
2022-11-05T02:09:18.994Z,10.33
2022-11-05T02:11:48.617Z,10.36
2022-11-05T02:14:17.939Z,10.35
2022-11-05T02:16:54.087Z,10.32
2022-11-05T02:19:48.885Z,10.37
2022-11-05T02:22:40.650Z,10.36
2022-11-05T02:25:33.520Z,10.36
2022-11-05T02:28:26.886Z,10.36
2022-11-05T02:31:03.717Z,10.31
2022-11-05T02:33:39.900Z,10.34
2022-11-05T02:36:22.270Z,10.38
2022-11-05T02:39:03.689Z,10.38
2022-11-05T02:41:40.469Z,10.35
2022-11-05T02:44:21.015Z,10.34
2022-11-05T02:46:57.836Z,10.37
2022-11-05T02:49:38.354Z,10.37
2022-11-05T02:52:14.174Z,10.31
2022-11-05T02:54:48.642Z,10.23
2022-11-05T02:57:21.234Z,10.21
2022-11-05T02:59:49.864Z,10.18
2022-11-05T03:02:18.848Z,10.19
2022-11-05T03:04:47.696Z,10.22
2022-11-05T03:07:32.735Z,10.16
2022-11-05T03:10:38.282Z,10.10
2022-11-05T03:13:17.161Z,10.15
2022-11-05T03:15:57.711Z,10.11
2022-11-05T03:18:34.522Z,10.10
2022-11-05T03:21:07.189Z,10.10
2022-11-05T03:23:46.164Z,10.14
2022-11-05T03:26:19.182Z,10.12
2022-11-05T03:28:52.162Z,10.07
2022-11-05T03:31:23.315Z,10.04
2022-11-05T03:33:55.092Z,10.02
2022-11-05T03:36:27.407Z,9.99
2022-11-05T03:39:01.045Z,9.98
2022-11-05T03:41:33.132Z,9.97
2022-11-05T03:44:06.224Z,9.93
2022-11-05T03:46:42.431Z,9.91
2022-11-05T03:49:17.892Z,9.96
2022-11-05T03:51:52.444Z,9.97
2022-11-05T03:54:21.569Z,9.90
2022-11-05T03:57:01.061Z,9.89
2022-11-05T03:59:31.268Z,9.89
2022-11-05T04:02:00.181Z,9.90
2022-11-05T04:04:28.949Z,9.94
2022-11-05T04:07:15.707Z,9.99
2022-11-05T04:10:02.421Z,10.06
2022-11-05T04:12:49.288Z,10.01
2022-11-05T04:15:18.142Z,10.03
2022-11-05T04:17:47.037Z,10.09
2022-11-05T04:20:34.351Z,10.21
2022-11-05T04:23:23.310Z,10.20
2022-11-05T04:25:52.102Z,10.13
2022-11-05T04:28:40.962Z,10.17
2022-11-05T04:31:18.912Z,10.20
2022-11-05T04:33:57.343Z,10.20
2022-11-05T04:36:35.429Z,10.29
2022-11-05T04:39:12.998Z,10.37
2022-11-05T04:41:51.654Z,10.36
2022-11-05T04:44:29.795Z,10.34
2022-11-05T04:46:58.582Z,10.34
2022-11-05T04:49:27.360Z,10.42
2022-11-05T04:51:56.728Z,10.46
2022-11-05T04:54:25.813Z,10.38
2022-11-05T04:56:54.789Z,10.35
2022-11-05T04:59:23.570Z,10.45
2022-11-05T05:01:53.620Z,10.51
2022-11-05T05:04:22.354Z,10.60
2022-11-05T05:06:51.334Z,10.65
2022-11-05T05:09:20.305Z,10.71
2022-11-05T05:11:49.143Z,10.75
2022-11-05T05:14:18.054Z,10.78
2022-11-05T05:16:46.715Z,10.85
2022-11-05T05:19:15.555Z,10.90
2022-11-05T05:21:44.373Z,10.86
2022-11-05T05:24:15.223Z,10.78
2022-11-05T05:26:45.835Z,10.73
2022-11-05T05:29:15.094Z,10.78
2022-11-05T05:31:44.746Z,10.81
2022-11-05T05:34:15.013Z,10.81
2022-11-05T05:36:43.831Z,10.79
2022-11-05T05:39:13.138Z,10.82
2022-11-05T05:41:41.993Z,10.73
2022-11-05T05:44:10.809Z,10.75
2022-11-05T05:46:39.613Z,10.71
2022-11-05T05:49:12.505Z,10.68
2022-11-05T05:51:41.519Z,10.60
2022-11-05T05:54:12.382Z,10.55
2022-11-05T05:56:42.693Z,10.56
2022-11-05T05:59:11.630Z,10.64
2022-11-05T06:01:40.913Z,10.65
2022-11-05T06:04:10.483Z,10.59
2022-11-05T06:06:39.745Z,10.52
2022-11-05T06:09:08.611Z,10.63
2022-11-05T06:11:37.243Z,10.72
2022-11-05T06:14:06.079Z,10.73
2022-11-05T06:16:35.542Z,10.67
2022-11-05T06:19:04.738Z,10.69
2022-11-05T06:21:33.682Z,10.72
2022-11-05T06:24:02.630Z,10.72
2022-11-05T06:26:31.877Z,10.69
2022-11-05T06:29:00.773Z,10.82
2022-11-05T06:31:29.625Z,10.90
2022-11-05T06:33:58.574Z,10.97
2022-11-05T06:36:27.952Z,10.96
2022-11-05T06:38:56.752Z,10.98
2022-11-05T06:41:25.624Z,11.03
2022-11-05T06:43:54.547Z,11.06
2022-11-05T06:46:23.246Z,11.17
2022-11-05T06:48:52.478Z,11.24
2022-11-05T06:51:21.579Z,11.23
2022-11-05T06:53:50.253Z,11.26
2022-11-05T06:56:18.989Z,11.30
2022-11-05T06:58:48.084Z,11.32
2022-11-05T07:01:17.034Z,11.31
2022-11-05T07:03:48.606Z,11.25
2022-11-05T07:06:17.675Z,11.20
2022-11-05T07:08:47.018Z,11.25
2022-11-05T07:11:16.035Z,11.33
2022-11-05T07:13:44.918Z,11.38
2022-11-05T07:16:13.816Z,11.37
2022-11-05T07:18:42.618Z,11.25
2022-11-05T07:21:11.394Z,11.24
2022-11-05T07:23:40.079Z,11.41
2022-11-05T07:26:08.826Z,11.57
2022-11-05T07:28:37.631Z,11.70
2022-11-05T07:31:06.899Z,11.75
2022-11-05T07:33:36.798Z,11.79
2022-11-05T07:36:06.842Z,11.87
2022-11-05T07:38:36.248Z,11.95
2022-11-05T07:41:05.403Z,11.99
2022-11-05T07:43:34.178Z,11.96
2022-11-05T07:46:03.068Z,12.03
2022-11-05T07:48:31.855Z,12.10
2022-11-05T07:51:00.790Z,12.17
2022-11-05T07:53:29.668Z,12.20
2022-11-05T07:55:58.647Z,12.23
2022-11-05T07:58:27.835Z,12.23
2022-11-05T08:00:58.193Z,12.21
2022-11-05T08:03:27.287Z,12.18
2022-11-05T08:05:56.356Z,12.17
2022-11-05T08:08:25.819Z,12.16
2022-11-05T08:10:54.561Z,11.98
2022-11-05T08:13:23.424Z,11.93
2022-11-05T08:15:52.197Z,11.90
2022-11-05T08:18:20.891Z,11.95
2022-11-05T08:20:49.861Z,11.97
2022-11-05T08:23:18.554Z,11.93
2022-11-05T08:25:47.178Z,11.90
2022-11-05T08:28:15.911Z,11.97
2022-11-05T08:30:48.527Z,12.02
2022-11-05T08:33:17.273Z,12.06
2022-11-05T08:35:46.082Z,12.09
2022-11-05T08:38:17.216Z,12.12
2022-11-05T08:40:53.172Z,12.09
2022-11-05T08:43:22.045Z,12.01
2022-11-05T08:45:51.080Z,11.98
2022-11-05T08:48:20.225Z,11.94
2022-11-05T08:50:49.740Z,11.88
2022-11-05T08:53:18.825Z,11.89
2022-11-05T08:55:49.674Z,11.91
2022-11-05T08:58:19.825Z,11.96
2022-11-05T09:00:50.355Z,11.94
2022-11-05T09:03:19.333Z,11.85
2022-11-05T09:05:48.066Z,11.84
2022-11-05T09:08:19.004Z,11.82
2022-11-05T09:10:49.360Z,11.75
2022-11-05T09:13:20.069Z,11.72
2022-11-05T09:15:49.789Z,11.73
2022-11-05T09:18:19.840Z,11.87
2022-11-05T09:20:48.789Z,11.83
2022-11-05T09:23:18.013Z,11.87
2022-11-05T09:25:46.901Z,11.97
2022-11-05T09:28:17.649Z,11.96
2022-11-05T09:30:47.939Z,12.05
2022-11-05T09:33:18.959Z,11.95
2022-11-05T09:35:48.140Z,11.85
2022-11-05T09:38:16.898Z,11.85
2022-11-05T09:40:52.973Z,11.80
2022-11-05T09:43:30.393Z,11.82
2022-11-05T09:46:08.416Z,11.91
2022-11-05T09:48:39.279Z,11.95
2022-11-05T09:51:10.252Z,11.97
2022-11-05T09:53:42.070Z,12.00
2022-11-05T09:56:21.098Z,12.07
2022-11-05T09:58:53.337Z,12.10
2022-11-05T10:01:26.704Z,12.05
2022-11-05T10:03:58.677Z,12.01
2022-11-05T10:06:28.664Z,11.97
2022-11-05T10:09:03.411Z,12.00
2022-11-05T10:11:34.065Z,12.06
2022-11-05T10:14:11.034Z,12.23
2022-11-05T10:16:43.498Z,12.25
2022-11-05T10:19:21.627Z,12.29
2022-11-05T10:22:05.949Z,12.37
2022-11-05T10:24:35.940Z,12.40
2022-11-05T10:27:06.541Z,12.43
2022-11-05T10:29:36.769Z,12.31
2022-11-05T10:32:06.892Z,12.17
2022-11-05T10:34:37.694Z,12.11
2022-11-05T10:37:06.371Z,12.09
2022-11-05T10:39:35.479Z,12.01
2022-11-05T10:42:31.945Z,11.97
2022-11-05T10:45:08.595Z,11.91
2022-11-05T10:47:48.911Z,11.89
2022-11-05T10:50:20.397Z,11.91
2022-11-05T10:52:57.648Z,11.95
2022-11-05T10:55:28.660Z,12.01
2022-11-05T10:58:08.899Z,12.07
2022-11-05T11:00:37.977Z,12.08
2022-11-05T11:03:28.089Z,12.10
2022-11-05T11:06:01.144Z,12.14
2022-11-05T11:08:31.128Z,12.12
2022-11-05T11:11:03.505Z,12.17
2022-11-05T11:13:50.206Z,12.15
2022-11-05T11:16:23.475Z,12.07
2022-11-05T11:18:56.091Z,12.05
2022-11-05T11:21:25.992Z,12.05
2022-11-05T11:24:00.367Z,12.13
2022-11-05T11:26:32.226Z,12.15
2022-11-05T11:29:05.818Z,12.16
2022-11-05T11:31:39.788Z,12.07
2022-11-05T11:34:16.318Z,12.03
2022-11-05T11:36:47.133Z,12.04
2022-11-05T11:39:19.664Z,12.02
2022-11-05T11:41:52.546Z,12.03
2022-11-05T11:44:26.762Z,11.93
2022-11-05T11:46:57.728Z,11.80
2022-11-05T11:49:40.207Z,11.77
2022-11-05T11:52:13.626Z,11.81
2022-11-05T11:54:42.827Z,11.95
2022-11-05T11:57:24.930Z,12.01
2022-11-05T12:00:08.305Z,12.18
2022-11-05T12:03:01.583Z,12.25
2022-11-05T12:05:41.574Z,12.24
2022-11-05T12:08:37.151Z,12.25
2022-11-05T12:11:13.106Z,12.20
2022-11-05T12:14:03.996Z,12.32
2022-11-05T12:17:06.933Z,12.32
2022-11-05T12:19:52.520Z,12.47
2022-11-05T12:22:30.716Z,12.60
2022-11-05T12:25:17.835Z,12.54
2022-11-05T12:27:59.436Z,12.49
2022-11-05T12:30:35.703Z,12.45
2022-11-05T12:33:24.806Z,12.37
2022-11-05T12:36:05.568Z,12.20
2022-11-05T12:39:04.741Z,12.10
2022-11-05T12:41:39.293Z,12.19
2022-11-05T12:44:33.543Z,12.06
2022-11-05T12:47:17.064Z,12.12
2022-11-05T12:49:59.975Z,12.15
2022-11-05T12:52:52.263Z,12.13
2022-11-05T12:55:24.463Z,12.12
2022-11-05T12:57:58.757Z,12.18
2022-11-05T13:00:30.723Z,12.04
2022-11-05T13:03:19.521Z,11.94
2022-11-05T13:05:53.996Z,12.10
2022-11-05T13:08:26.407Z,12.12
2022-11-05T13:11:00.141Z,12.06
2022-11-05T13:13:37.858Z,11.90
2022-11-05T13:16:13.245Z,11.87
2022-11-05T13:18:47.208Z,11.91
2022-11-05T13:21:17.570Z,12.03
2022-11-05T13:23:50.842Z,12.15
2022-11-05T13:26:25.172Z,12.09
2022-11-05T13:28:59.362Z,11.96
2022-11-05T13:31:33.609Z,11.99
2022-11-05T13:34:06.499Z,11.96
2022-11-05T13:37:05.727Z,11.86
2022-11-05T13:39:37.837Z,11.88
2022-11-05T13:42:27.094Z,11.85
2022-11-05T13:45:13.676Z,11.76
2022-11-05T13:48:10.611Z,11.76
2022-11-05T13:51:16.312Z,11.63
2022-11-05T13:54:19.139Z,11.84
2022-11-05T13:57:04.764Z,11.88
2022-11-05T13:59:54.925Z,11.97
2022-11-05T14:02:26.935Z,11.89
2022-11-05T14:05:00.988Z,11.78
2022-11-05T14:07:33.223Z,11.80
2022-11-05T14:10:15.471Z,11.74
2022-11-05T14:12:50.714Z,11.86
2022-11-05T14:15:24.102Z,11.69
2022-11-05T14:17:58.848Z,11.73
2022-11-05T14:20:34.311Z,11.79
2022-11-05T14:23:38.620Z,11.80
2022-11-05T14:26:22.502Z,11.75
2022-11-05T14:29:13.292Z,11.74
2022-11-05T14:32:08.368Z,11.72
2022-11-05T14:34:49.227Z,11.71
2022-11-05T14:37:34.215Z,11.70
2022-11-05T14:40:35.852Z,11.61
2022-11-05T14:43:08.325Z,11.66
2022-11-05T14:45:39.489Z,11.62
2022-11-05T14:48:27.902Z,11.60
2022-11-05T14:50:57.323Z,11.57
2022-11-05T14:53:32.320Z,11.53
2022-11-05T14:56:05.422Z,11.55
2022-11-05T14:58:39.230Z,11.65
2022-11-05T15:01:09.669Z,11.63
2022-11-05T15:04:02.794Z,11.55
2022-11-05T15:06:34.989Z,11.57
2022-11-05T15:09:17.328Z,11.52
2022-11-05T15:12:02.541Z,11.58
2022-11-05T15:14:34.763Z,11.56
2022-11-05T15:17:18.088Z,11.53
2022-11-05T15:19:48.420Z,11.48
2022-11-05T15:22:34.843Z,11.44
2022-11-05T15:25:05.083Z,11.36
2022-11-05T15:27:55.325Z,11.34
2022-11-05T15:30:25.747Z,11.35
2022-11-05T15:32:54.790Z,11.35
2022-11-05T15:35:26.980Z,11.48
2022-11-05T15:38:02.264Z,11.45
2022-11-05T15:40:33.892Z,11.34
2022-11-05T15:43:19.068Z,11.32
2022-11-05T15:46:01.313Z,11.32
2022-11-05T15:48:30.429Z,11.30
2022-11-05T15:50:59.490Z,11.36
2022-11-05T15:56:51.539Z,11.23
2022-11-05T15:59:21.887Z,11.31
2022-11-05T16:01:54.199Z,11.29
2022-11-05T16:04:25.638Z,11.21
2022-11-05T16:06:57.749Z,11.35
2022-11-05T16:09:28.565Z,11.24
2022-11-05T16:12:26.139Z,11.13
2022-11-05T16:15:05.298Z,11.06
2022-11-05T16:17:47.388Z,11.02
2022-11-05T16:20:23.674Z,10.90
2022-11-05T16:22:55.549Z,10.89
2022-11-05T16:25:29.612Z,10.89
2022-11-05T16:28:00.113Z,10.87
2022-11-05T16:30:29.735Z,10.94
2022-11-05T16:33:07.232Z,10.96
2022-11-05T16:35:48.278Z,10.92
2022-11-05T16:38:18.598Z,10.99
2022-11-05T16:40:47.450Z,10.91
2022-11-05T16:43:21.063Z,10.80
2022-11-05T16:45:50.513Z,10.80
2022-11-05T16:48:19.169Z,10.88
2022-11-05T16:50:48.399Z,10.75
2022-11-05T16:53:19.408Z,10.65
2022-11-05T16:55:49.007Z,10.72
2022-11-05T16:58:21.522Z,10.78
2022-11-05T17:00:52.705Z,10.79
2022-11-05T17:03:22.579Z,10.80
2022-11-05T17:05:51.865Z,10.96
2022-11-05T17:08:22.132Z,11.04
2022-11-05T17:10:51.441Z,10.97
2022-11-05T17:13:21.347Z,10.98
2022-11-05T17:15:51.596Z,11.06
2022-11-05T17:18:21.346Z,11.06
2022-11-05T17:20:52.418Z,11.00
2022-11-05T17:23:28.093Z,10.86
2022-11-05T17:26:02.632Z,10.80
2022-11-05T17:28:32.132Z,10.75
2022-11-05T17:31:02.345Z,10.80
2022-11-05T17:33:32.416Z,10.97
2022-11-05T17:36:05.015Z,10.99
2022-11-05T17:38:34.393Z,10.83
2022-11-05T17:41:09.938Z,10.76
2022-11-05T17:43:39.340Z,10.74
2022-11-05T17:46:10.995Z,10.90
2022-11-05T17:48:41.056Z,10.91
2022-11-05T17:51:11.703Z,10.83
2022-11-05T17:53:41.647Z,10.80
2022-11-05T17:56:12.324Z,10.78
2022-11-05T17:58:41.510Z,10.91
2022-11-05T18:01:25.588Z,10.98
2022-11-05T18:03:55.308Z,10.93
2022-11-05T18:06:25.409Z,10.91
2022-11-05T18:08:54.907Z,10.95
2022-11-05T18:11:24.272Z,10.87
2022-11-05T18:13:53.601Z,10.92
2022-11-05T18:16:23.085Z,11.01
2022-11-05T18:18:52.829Z,11.04
2022-11-05T18:21:22.589Z,11.17
2022-11-05T18:23:52.513Z,11.19
2022-11-05T18:26:21.640Z,11.28
2022-11-05T18:28:50.883Z,11.35
2022-11-05T18:31:22.590Z,11.40
2022-11-05T18:33:55.472Z,11.39
2022-11-05T18:36:26.529Z,11.36
2022-11-05T18:38:57.460Z,11.43
2022-11-05T18:41:26.852Z,11.43
2022-11-05T18:44:00.321Z,11.46
2022-11-05T18:46:56.613Z,11.40
2022-11-05T18:49:19.953Z,11.36
2022-11-05T18:51:49.317Z,11.43
2022-11-05T18:54:18.950Z,11.48
2022-11-05T18:56:48.173Z,11.45
2022-11-05T18:59:36.828Z,11.40
2022-11-05T19:02:08.326Z,11.37
2022-11-05T19:04:38.547Z,11.27
2022-11-05T19:07:08.699Z,11.22
2022-11-05T19:09:40.276Z,11.15
2022-11-05T19:12:09.814Z,11.26
2022-11-05T19:14:38.709Z,11.25
2022-11-05T19:17:09.498Z,11.16
2022-11-05T19:19:39.135Z,11.24
2022-11-05T19:22:08.245Z,11.19
2022-11-05T19:24:37.483Z,11.15
2022-11-05T19:27:07.342Z,11.04
2022-11-05T19:29:36.727Z,11.06
2022-11-05T19:32:06.701Z,11.11
2022-11-05T19:34:36.030Z,11.17
2022-11-05T19:37:07.283Z,11.22
2022-11-05T19:39:36.812Z,11.23
2022-11-05T19:42:08.507Z,11.27
2022-11-05T19:44:38.335Z,11.20
2022-11-05T19:47:07.075Z,11.18
2022-11-05T19:49:36.637Z,11.20
2022-11-05T19:52:06.679Z,11.34
2022-11-05T19:54:36.007Z,11.35
2022-11-05T19:57:06.544Z,11.35
2022-11-05T19:59:36.122Z,11.29
2022-11-05T20:02:06.848Z,11.19
2022-11-05T20:04:38.153Z,11.22
2022-11-05T20:07:07.554Z,11.14
2022-11-05T20:09:36.793Z,11.10
2022-11-05T20:12:06.479Z,11.05
2022-11-05T20:14:36.019Z,11.03
2022-11-05T20:17:05.860Z,11.05
2022-11-05T20:19:35.657Z,11.12
2022-11-05T20:22:05.041Z,11.16
2022-11-05T20:24:34.389Z,11.17
2022-11-05T20:27:03.312Z,11.15
2022-11-05T20:29:35.587Z,11.06
2022-11-05T20:32:06.559Z,10.91
2022-11-05T20:34:36.223Z,11.03
2022-11-05T20:37:05.526Z,11.20
2022-11-05T20:39:34.631Z,11.17
2022-11-05T20:42:04.053Z,11.08
2022-11-05T20:44:32.914Z,10.96
2022-11-05T20:47:02.435Z,10.79
2022-11-05T20:49:31.619Z,10.81
2022-11-05T20:52:00.860Z,10.74
2022-11-05T20:54:30.265Z,10.85
2022-11-05T20:57:00.036Z,10.92
2022-11-05T20:59:29.478Z,10.91
2022-11-05T21:01:59.081Z,10.91
2022-11-05T21:04:29.367Z,10.88
2022-11-05T21:06:59.087Z,10.99
2022-11-05T21:09:29.453Z,11.01
2022-11-05T21:12:11.385Z,11.01
2022-11-05T21:14:43.307Z,11.11
2022-11-05T21:17:15.069Z,11.20
2022-11-05T21:19:44.230Z,11.18
2022-11-05T21:22:15.716Z,11.16
2022-11-05T21:24:45.761Z,11.14
2022-11-05T21:27:15.093Z,11.04
2022-11-05T21:29:44.818Z,11.00
2022-11-05T21:32:14.188Z,10.97
2022-11-05T21:34:43.684Z,10.98
2022-11-05T21:37:13.193Z,10.86
2022-11-05T21:39:42.537Z,10.84
2022-11-05T21:42:12.282Z,10.76
2022-11-05T21:44:41.554Z,10.70
2022-11-05T21:47:11.152Z,10.71
2022-11-05T21:49:40.360Z,10.80
2022-11-05T21:52:30.770Z,10.77
2022-11-05T21:55:17.946Z,10.73
2022-11-05T21:58:04.710Z,10.72
2022-11-05T22:00:34.500Z,10.72
2022-11-05T22:03:04.123Z,10.71
2022-11-05T22:05:33.585Z,10.67
2022-11-05T22:08:03.188Z,10.66
2022-11-05T22:10:32.481Z,10.59
2022-11-05T22:13:02.296Z,10.53
2022-11-05T22:15:30.980Z,10.48
2022-11-05T22:17:59.849Z,10.47
2022-11-05T22:20:29.035Z,10.39
2022-11-05T22:22:57.816Z,10.33
2022-11-05T22:25:26.621Z,10.38
2022-11-05T22:27:55.373Z,10.53
2022-11-05T22:30:24.158Z,10.40
2022-11-05T22:32:53.094Z,10.27
2022-11-05T22:35:21.865Z,10.28
2022-11-05T22:37:50.823Z,10.33
2022-11-05T22:40:23.714Z,10.24
2022-11-05T22:42:52.996Z,10.19
2022-11-05T22:45:22.090Z,10.17
2022-11-05T22:47:50.808Z,10.26
2022-11-05T22:50:19.725Z,10.24
2022-11-05T22:52:49.287Z,10.09
2022-11-05T22:55:18.278Z,10.14
2022-11-05T22:57:47.244Z,10.08
2022-11-05T23:00:18.775Z,10.01
2022-11-05T23:02:47.891Z,10.04
2022-11-05T23:05:16.952Z,10.19
2022-11-05T23:08:03.714Z,10.20
2022-11-05T23:10:51.164Z,10.13
2022-11-05T23:13:19.867Z,10.07
2022-11-05T23:16:06.581Z,10.18
2022-11-05T23:18:53.147Z,10.23
2022-11-05T23:21:40.025Z,10.23
2022-11-05T23:24:09.160Z,10.25
2022-11-05T23:26:51.646Z,10.18
2022-11-05T23:29:23.373Z,10.10
2022-11-05T23:32:11.296Z,10.05
2022-11-05T23:34:40.729Z,10.09
2022-11-05T23:37:27.590Z,9.99
2022-11-05T23:39:56.377Z,9.97
2022-11-05T23:42:43.185Z,9.95
2022-11-05T23:45:45.311Z,9.86
2022-11-05T23:48:19.256Z,9.76
2022-11-05T23:50:52.087Z,9.79
2022-11-05T23:53:20.816Z,9.81
2022-11-05T23:55:49.903Z,9.93
2022-11-05T23:58:18.968Z,9.92
